createdAt,value
2022-11-02T00:00:15.074Z,99461.16
2022-11-02T00:01:18.136Z,99461.55
2022-11-02T00:02:11.141Z,99462.14
2022-11-02T00:03:11.176Z,99460.63
2022-11-02T00:04:11.074Z,99471.09
2022-11-02T00:05:12.064Z,99474.41
2022-11-02T00:06:11.063Z,99481.93
2022-11-02T00:07:11.069Z,99483.56
2022-11-02T00:08:11.064Z,99485.48
2022-11-02T00:09:11.075Z,99489.23
2022-11-02T00:10:11.069Z,99489.56
2022-11-02T00:11:11.063Z,99499.64
2022-11-02T00:12:11.065Z,99494.03
2022-11-02T00:13:11.070Z,99494.84
2022-11-02T00:14:11.065Z,99506.50
2022-11-02T00:15:11.064Z,99506.12
2022-11-02T00:16:13.070Z,99505.36
2022-11-02T00:17:11.064Z,99507.59
2022-11-02T00:18:12.064Z,99511.90
2022-11-02T00:19:11.066Z,99514.25
2022-11-02T00:20:11.063Z,99510.05
2022-11-02T00:21:11.060Z,99524.86
2022-11-02T00:22:11.067Z,99526.38
2022-11-02T00:23:11.097Z,99527.09
2022-11-02T00:24:11.057Z,99526.46
2022-11-02T00:25:12.064Z,99525.79
2022-11-02T00:26:11.060Z,99531.13
2022-11-02T00:27:11.059Z,99528.30
2022-11-02T00:28:11.067Z,99531.50
2022-11-02T00:29:11.062Z,99538.16
2022-11-02T00:30:11.055Z,99534.40
2022-11-02T00:31:11.058Z,99539.40
2022-11-02T00:32:11.061Z,99545.14
2022-11-02T00:33:11.097Z,99547.04
2022-11-02T00:34:11.064Z,99543.82
2022-11-02T00:35:11.060Z,99546.43
2022-11-02T00:36:11.057Z,99553.85
2022-11-02T00:37:11.063Z,99542.02
2022-11-02T00:38:11.066Z,99559.18
2022-11-02T00:39:11.063Z,99559.89
2022-11-02T00:40:11.069Z,99563.70
2022-11-02T00:41:11.060Z,99557.55
2022-11-02T00:42:11.061Z,99562.55
2022-11-02T00:43:11.071Z,99569.09
2022-11-02T00:44:11.063Z,99569.75
2022-11-02T00:45:11.062Z,99577.68
2022-11-02T00:46:11.074Z,99577.25
2022-11-02T00:47:11.061Z,99582.97
2022-11-02T00:48:11.059Z,99584.12
2022-11-02T00:49:11.062Z,99585.59
2022-11-02T00:50:11.059Z,99588.90
2022-11-02T00:51:11.063Z,99588.27
2022-11-02T00:52:11.063Z,99595.88
2022-11-02T00:53:11.057Z,99593.71
2022-11-02T00:54:11.070Z,99598.16
2022-11-02T00:55:11.062Z,99601.97
2022-11-02T00:56:11.062Z,99604.27
2022-11-02T00:57:11.070Z,99603.93
2022-11-02T00:58:11.064Z,99603.18
2022-11-02T00:59:11.057Z,99606.86
2022-11-02T01:00:11.065Z,99615.43
2022-11-02T01:01:11.181Z,99620.22
2022-11-02T01:02:11.218Z,99618.57
2022-11-02T01:03:11.066Z,99619.07
2022-11-02T01:04:11.067Z,99622.61
2022-11-02T01:05:11.077Z,99616.88
2022-11-02T01:06:14.067Z,99620.48
2022-11-02T01:07:11.070Z,99625.16
2022-11-02T01:08:11.064Z,99632.61
2022-11-02T01:09:11.062Z,99637.25
2022-11-02T01:10:11.069Z,99632.06
2022-11-02T01:11:15.061Z,99629.29
2022-11-02T01:12:11.064Z,99634.03
2022-11-02T01:13:11.065Z,99635.77
2022-11-02T01:14:11.066Z,99640.23
2022-11-02T01:15:11.066Z,99640.89
2022-11-02T01:16:11.065Z,99647.64
2022-11-02T01:17:11.064Z,99646.49
2022-11-02T01:18:11.066Z,99644.64
2022-11-02T01:19:11.065Z,99645.03
2022-11-02T01:20:11.063Z,99648.86
2022-11-02T01:21:11.064Z,99652.13
2022-11-02T01:22:11.070Z,99657.77
2022-11-02T01:23:11.064Z,99661.70
2022-11-02T01:24:11.062Z,99662.46
2022-11-02T01:25:11.070Z,99668.93
2022-11-02T01:26:11.061Z,99668.64
2022-11-02T01:27:11.063Z,99667.12
2022-11-02T01:28:11.070Z,99671.05
2022-11-02T01:29:11.061Z,99678.51
2022-11-02T01:30:11.065Z,99678.77
2022-11-02T01:31:11.070Z,99683.50
2022-11-02T01:32:11.067Z,99691.19
2022-11-02T01:33:11.062Z,99691.35
2022-11-02T01:34:13.080Z,99695.05
2022-11-02T01:35:11.065Z,99696.84
2022-11-02T01:36:11.137Z,99696.34
2022-11-02T01:37:11.079Z,99697.23
2022-11-02T01:38:11.064Z,99696.24
2022-11-02T01:39:11.061Z,99700.11
2022-11-02T01:40:11.092Z,99698.47
2022-11-02T01:41:11.067Z,99701.68
2022-11-02T01:42:19.062Z,99699.24
2022-11-02T01:43:22.064Z,99694.13
2022-11-02T01:44:22.072Z,99703.43
2022-11-02T01:45:13.081Z,99707.57
2022-11-02T01:46:22.063Z,99708.02
2022-11-02T01:47:19.062Z,99707.36
2022-11-02T01:48:11.067Z,99710.55
2022-11-02T01:49:15.074Z,99708.60
2022-11-02T01:50:19.063Z,99714.48
2022-11-02T01:51:19.061Z,99711.98
2022-11-02T01:52:21.064Z,99719.98
2022-11-02T01:53:11.076Z,99720.35
2022-11-02T01:54:14.063Z,99719.41
2022-11-02T01:55:17.066Z,99719.95
2022-11-02T01:56:12.161Z,99720.36
2022-11-02T01:57:13.071Z,99727.32
2022-11-02T01:58:12.064Z,99726.69
2022-11-02T01:59:14.075Z,99721.73
2022-11-02T02:00:15.069Z,99728.42
2022-11-02T02:01:11.121Z,99732.25
2022-11-02T02:02:17.312Z,99735.73
2022-11-02T02:03:12.075Z,99732.79
2022-11-02T02:04:11.068Z,99744.98
2022-11-02T02:05:12.062Z,99741.82
2022-11-02T02:06:17.069Z,99748.78
2022-11-02T02:07:11.069Z,99752.55
2022-11-02T02:08:11.064Z,99751.12
2022-11-02T02:09:11.066Z,99753.78
2022-11-02T02:10:11.074Z,99753.07
2022-11-02T02:11:19.067Z,99757.48
2022-11-02T02:12:11.068Z,99758.22
2022-11-02T02:13:11.075Z,99753.88
2022-11-02T02:14:15.069Z,99759.02
2022-11-02T02:15:11.067Z,99758.61
2022-11-02T02:16:20.070Z,99761.08
2022-11-02T02:17:19.079Z,99755.94
2022-11-02T02:18:19.073Z,99758.16
2022-11-02T02:19:22.066Z,99759.05
2022-11-02T02:20:22.062Z,99760.08
2022-11-02T02:21:19.067Z,99760.07
2022-11-02T02:22:19.074Z,99762.73
2022-11-02T02:23:22.066Z,99763.46
2022-11-02T02:24:19.072Z,99761.06
2022-11-02T02:25:22.065Z,99765.17
2022-11-02T02:26:19.069Z,99764.64
2022-11-02T02:27:20.071Z,99763.66
2022-11-02T02:28:22.068Z,99765.66
2022-11-02T02:29:19.067Z,99770.68
2022-11-02T02:30:11.064Z,99767.39
2022-11-02T02:31:18.066Z,99770.60
2022-11-02T02:32:19.078Z,99773.30
2022-11-02T02:33:13.067Z,99775.59
2022-11-02T02:34:19.063Z,99780.49
2022-11-02T02:35:19.069Z,99779.18
2022-11-02T02:36:19.074Z,99777.91
2022-11-02T02:37:18.068Z,99776.27
2022-11-02T02:38:14.066Z,99777.59
2022-11-02T02:39:22.068Z,99776.05
2022-11-02T02:40:17.069Z,99783.28
2022-11-02T02:41:18.068Z,99781.80
2022-11-02T02:42:22.067Z,99781.49
2022-11-02T02:43:19.063Z,99787.26
2022-11-02T02:44:14.067Z,99788.56
2022-11-02T02:45:19.096Z,99789.48
2022-11-02T02:46:21.069Z,99787.98
2022-11-02T02:47:17.071Z,99794.85
2022-11-02T02:48:17.070Z,99789.62
2022-11-02T02:49:13.068Z,99789.39
2022-11-02T02:50:20.070Z,99796.80
2022-11-02T02:51:14.067Z,99790.91
2022-11-02T02:52:11.078Z,99796.03
2022-11-02T02:53:11.076Z,99797.48
2022-11-02T02:54:15.067Z,99795.31
2022-11-02T02:55:15.068Z,99792.96
2022-11-02T02:56:11.075Z,99801.13
2022-11-02T02:57:12.077Z,99800.20
2022-11-02T02:58:18.073Z,99803.53
2022-11-02T02:59:19.077Z,99805.32
2022-11-02T03:00:15.070Z,99806.24
2022-11-02T03:01:13.290Z,99808.42
2022-11-02T03:02:17.239Z,99809.24
2022-11-02T03:03:11.075Z,99809.71
2022-11-02T03:04:15.070Z,99809.10
2022-11-02T03:05:19.068Z,99810.35
2022-11-02T03:06:19.070Z,99808.68
2022-11-02T03:07:11.078Z,99806.93
2022-11-02T03:08:13.068Z,99812.01
2022-11-02T03:09:19.072Z,99814.27
2022-11-02T03:10:21.074Z,99815.10
2022-11-02T03:11:18.081Z,99812.48
2022-11-02T03:12:19.069Z,99815.35
2022-11-02T03:13:19.068Z,99816.33
2022-11-02T03:14:19.072Z,99816.00
2022-11-02T03:15:19.070Z,99816.38
2022-11-02T03:16:22.083Z,99818.35
2022-11-02T03:17:19.073Z,99824.01
2022-11-02T03:18:19.067Z,99826.79
2022-11-02T03:19:20.085Z,99826.84
2022-11-02T03:20:19.070Z,99826.77
2022-11-02T03:21:19.103Z,99830.79
2022-11-02T03:22:19.062Z,99826.14
2022-11-02T03:23:23.060Z,99825.79
2022-11-02T03:24:21.062Z,99829.76
2022-11-02T03:25:19.061Z,99831.45
2022-11-02T03:26:20.061Z,99829.41
2022-11-02T03:27:19.076Z,99830.31
2022-11-02T03:28:22.063Z,99834.11
2022-11-02T03:29:14.060Z,99831.39
2022-11-02T03:30:19.062Z,99836.50
2022-11-02T03:31:19.068Z,99829.83
2022-11-02T03:32:14.080Z,99831.82
2022-11-02T03:33:19.063Z,99828.34
2022-11-02T03:34:19.057Z,99828.71
2022-11-02T03:35:19.062Z,99833.12
2022-11-02T03:36:17.068Z,99835.85
2022-11-02T03:37:20.063Z,99835.35
2022-11-02T03:38:17.061Z,99833.35
2022-11-02T03:39:12.061Z,99829.97
2022-11-02T03:40:20.064Z,99830.62
2022-11-02T03:41:11.069Z,99831.60
2022-11-02T03:42:12.062Z,99832.69
2022-11-02T03:43:11.066Z,99842.38
2022-11-02T03:44:14.085Z,99841.04
2022-11-02T03:45:19.063Z,99837.23
2022-11-02T03:46:12.062Z,99841.32
2022-11-02T03:47:12.063Z,99842.41
2022-11-02T03:48:12.074Z,99847.04
2022-11-02T03:49:14.064Z,99848.94
2022-11-02T03:50:11.061Z,99844.66
2022-11-02T03:51:13.064Z,99851.95
2022-11-02T03:52:16.062Z,99849.15
2022-11-02T03:53:18.097Z,99847.81
2022-11-02T03:54:21.074Z,99844.15
2022-11-02T03:55:18.064Z,99846.04
2022-11-02T03:56:14.079Z,99844.91
2022-11-02T03:57:16.061Z,99845.14
2022-11-02T03:58:13.060Z,99845.61
2022-11-02T03:59:11.066Z,99850.07
2022-11-02T04:00:16.064Z,99849.38
2022-11-02T04:01:12.110Z,99853.66
2022-11-02T04:02:11.191Z,99855.19
2022-11-02T04:03:13.074Z,99856.46
2022-11-02T04:04:11.063Z,99854.43
2022-11-02T04:05:11.064Z,99854.05
2022-11-02T04:06:11.065Z,99857.70
2022-11-02T04:07:11.062Z,99859.69
2022-11-02T04:08:17.063Z,99862.29
2022-11-02T04:09:11.072Z,99859.29
2022-11-02T04:10:11.061Z,99866.82
2022-11-02T04:11:15.066Z,99863.04
2022-11-02T04:12:15.078Z,99871.07
2022-11-02T04:13:15.065Z,99866.32
2022-11-02T04:14:15.065Z,99870.17
2022-11-02T04:15:11.069Z,99868.06
2022-11-02T04:16:11.075Z,99875.09
2022-11-02T04:17:15.064Z,99875.74
2022-11-02T04:18:15.060Z,99877.46
2022-11-02T04:19:15.065Z,99880.75
2022-11-02T04:20:11.075Z,99877.57
2022-11-02T04:21:11.064Z,99883.27
2022-11-02T04:22:15.120Z,99880.29
2022-11-02T04:23:15.073Z,99880.66
2022-11-02T04:24:15.061Z,99889.03
2022-11-02T04:25:18.068Z,99890.21
2022-11-02T04:26:11.062Z,99889.56
2022-11-02T04:27:11.070Z,99888.44
2022-11-02T04:28:11.062Z,99892.45
2022-11-02T04:29:11.063Z,99894.99
2022-11-02T04:30:11.077Z,99890.71
2022-11-02T04:31:11.063Z,99897.33
2022-11-02T04:32:11.064Z,99898.21
2022-11-02T04:33:15.075Z,99901.39
2022-11-02T04:34:11.062Z,99902.87
2022-11-02T04:35:11.059Z,99905.48
2022-11-02T04:36:11.068Z,99903.03
2022-11-02T04:37:15.063Z,99901.61
2022-11-02T04:38:15.060Z,99903.02
2022-11-02T04:39:11.061Z,99906.80
2022-11-02T04:40:11.067Z,99904.45
2022-11-02T04:41:18.065Z,99905.75
2022-11-02T04:42:11.063Z,99902.78
2022-11-02T04:43:11.063Z,99904.57
2022-11-02T04:44:13.063Z,99906.87
2022-11-02T04:45:11.062Z,99907.47
2022-11-02T04:46:11.061Z,99915.04
2022-11-02T04:47:11.064Z,99920.27
2022-11-02T04:48:11.063Z,99920.04
2022-11-02T04:49:11.062Z,99919.47
2022-11-02T04:50:11.065Z,99919.68
2022-11-02T04:51:11.062Z,99924.46
2022-11-02T04:52:11.064Z,99924.14
2022-11-02T04:53:11.065Z,99926.15
2022-11-02T04:54:11.061Z,99927.52
2022-11-02T04:55:11.067Z,99926.71
2022-11-02T04:56:11.073Z,99924.69
2022-11-02T04:57:11.061Z,99927.42
2022-11-02T04:58:11.063Z,99929.32
2022-11-02T04:59:11.070Z,99929.72
2022-11-02T05:00:11.066Z,99932.22
2022-11-02T05:01:14.127Z,99930.70
2022-11-02T05:02:11.207Z,99931.48
2022-11-02T05:03:12.499Z,99930.45
2022-11-02T05:04:11.065Z,99933.91
2022-11-02T05:05:11.072Z,99936.73
2022-11-02T05:06:11.065Z,99935.34
2022-11-02T05:07:11.066Z,99937.97
2022-11-02T05:08:11.072Z,99940.80
2022-11-02T05:09:11.065Z,99941.68
2022-11-02T05:10:11.065Z,99938.45
2022-11-02T05:11:11.062Z,99946.02
2022-11-02T05:12:11.066Z,99940.92
2022-11-02T05:13:11.062Z,99941.92
2022-11-02T05:14:11.065Z,99947.64
2022-11-02T05:15:11.076Z,99950.90
2022-11-02T05:16:15.064Z,99946.98
2022-11-02T05:17:11.065Z,99947.19
2022-11-02T05:18:14.877Z,99949.71
2022-11-02T05:19:13.113Z,99951.08
2022-11-02T05:20:11.064Z,99951.46
2022-11-02T05:21:11.061Z,99950.41
2022-11-02T05:22:11.070Z,99948.25
2022-11-02T05:23:11.056Z,99949.46
2022-11-02T05:24:11.064Z,99949.52
2022-11-02T05:25:11.061Z,99952.82
2022-11-02T05:26:13.059Z,99956.18
2022-11-02T05:27:11.065Z,99962.22
2022-11-02T05:28:11.066Z,99962.41
2022-11-02T05:29:11.058Z,99962.62
2022-11-02T05:30:11.061Z,99961.75
2022-11-02T05:31:11.069Z,99958.74
2022-11-02T05:32:11.059Z,99957.78
2022-11-02T05:33:11.061Z,99954.14
2022-11-02T05:34:11.071Z,99954.63
2022-11-02T05:35:11.062Z,99953.45
2022-11-02T05:36:11.057Z,99952.32
2022-11-02T05:37:11.068Z,99946.47
2022-11-02T05:38:11.061Z,99945.45
2022-11-02T05:39:11.056Z,99935.61
2022-11-02T05:40:11.066Z,99935.64
2022-11-02T05:41:11.063Z,99934.70
2022-11-02T05:42:11.057Z,99935.33
2022-11-02T05:43:11.062Z,99934.14
2022-11-02T05:44:11.061Z,99934.69
2022-11-02T05:45:11.061Z,99933.32
2022-11-02T05:46:11.059Z,99924.52
2022-11-02T05:47:11.090Z,99920.18
2022-11-02T05:48:13.061Z,99920.39
2022-11-02T05:49:11.066Z,99922.66
2022-11-02T05:50:11.062Z,99920.88
2022-11-02T05:51:11.060Z,99917.73
2022-11-02T05:52:11.062Z,99916.24
2022-11-02T05:53:11.068Z,99914.32
2022-11-02T05:54:11.059Z,99915.86
2022-11-02T05:55:11.057Z,99923.87
2022-11-02T05:56:11.071Z,99926.33
2022-11-02T05:57:11.062Z,99923.76
2022-11-02T05:58:11.066Z,99923.32
2022-11-02T05:59:11.064Z,99923.64
2022-11-02T06:00:11.062Z,99924.26
2022-11-02T06:01:11.166Z,99920.13
2022-11-02T06:02:11.063Z,99918.05
2022-11-02T06:03:11.064Z,99915.57
2022-11-02T06:04:11.149Z,99919.46
2022-11-02T06:05:11.125Z,99917.88
2022-11-02T06:06:11.062Z,99924.73
2022-11-02T06:07:11.062Z,99922.05
2022-11-02T06:08:11.061Z,99922.24
2022-11-02T06:09:11.063Z,99922.57
2022-11-02T06:10:11.061Z,99925.24
2022-11-02T06:11:11.061Z,99926.51
2022-11-02T06:12:11.062Z,99922.88
2022-11-02T06:13:11.064Z,99921.83
2022-11-02T06:14:11.062Z,99925.86
2022-11-02T06:15:11.078Z,99926.00
2022-11-02T06:16:11.085Z,99930.26
2022-11-02T06:17:11.072Z,99937.31
2022-11-02T06:18:11.069Z,99931.02
2022-11-02T06:19:11.165Z,99933.25
2022-11-02T06:20:11.070Z,99932.00
2022-11-02T06:21:11.060Z,99934.89
2022-11-02T06:22:11.055Z,99935.72
2022-11-02T06:23:11.061Z,99935.45
2022-11-02T06:24:11.064Z,99932.26
2022-11-02T06:25:11.059Z,99928.15
2022-11-02T06:26:11.063Z,99924.95
2022-11-02T06:27:11.061Z,99929.86
2022-11-02T06:28:11.056Z,99925.89
2022-11-02T06:29:11.061Z,99924.15
2022-11-02T06:30:11.062Z,99919.32
2022-11-02T06:31:11.055Z,99926.74
2022-11-02T06:32:11.063Z,99927.89
2022-11-02T06:33:11.234Z,99932.41
2022-11-02T06:34:11.055Z,99930.44
2022-11-02T06:35:11.063Z,99928.43
2022-11-02T06:36:11.061Z,99923.91
2022-11-02T06:37:11.057Z,99920.39
2022-11-02T06:38:11.063Z,99920.12
2022-11-02T06:39:11.061Z,99925.53
2022-11-02T06:40:11.058Z,99925.82
2022-11-02T06:41:11.062Z,99923.72
2022-11-02T06:42:11.061Z,99928.13
2022-11-02T06:43:16.625Z,99923.38
2022-11-02T06:44:13.105Z,99921.77
2022-11-02T06:45:11.063Z,99924.09
2022-11-02T06:46:11.059Z,99922.10
2022-11-02T06:47:11.059Z,99924.74
2022-11-02T06:48:11.071Z,99926.13
2022-11-02T06:49:11.059Z,99926.68
2022-11-02T06:50:11.062Z,99931.49
2022-11-02T06:51:11.068Z,99926.04
2022-11-02T06:52:11.060Z,99928.04
2022-11-02T06:53:11.066Z,99924.99
2022-11-02T06:54:11.068Z,99928.63
2022-11-02T06:55:11.062Z,99927.19
2022-11-02T06:56:11.065Z,99928.39
2022-11-02T06:57:11.069Z,99925.36
2022-11-02T06:58:11.064Z,99922.59
2022-11-02T06:59:11.062Z,99921.80
2022-11-02T07:00:11.066Z,99917.71
2022-11-02T07:01:11.326Z,99917.54
2022-11-02T07:02:11.089Z,99917.11
2022-11-02T07:03:11.065Z,99920.23
2022-11-02T07:04:11.064Z,99921.15
2022-11-02T07:05:11.064Z,99920.91
2022-11-02T07:06:14.095Z,99916.34
2022-11-02T07:07:11.063Z,99914.89
2022-11-02T07:08:11.060Z,99910.44
2022-11-02T07:09:11.062Z,99910.66
2022-11-02T07:10:12.070Z,99906.71
2022-11-02T07:11:15.083Z,99915.38
2022-11-02T07:12:11.065Z,99910.61
2022-11-02T07:13:11.069Z,99908.08
2022-11-02T07:14:11.063Z,99909.09
2022-11-02T07:15:11.065Z,99907.82
2022-11-02T07:16:11.071Z,99915.23
2022-11-02T07:17:11.059Z,99914.36
2022-11-02T07:18:11.062Z,99915.00
2022-11-02T07:19:11.064Z,99919.20
2022-11-02T07:20:11.061Z,99919.91
2022-11-02T07:21:11.139Z,99914.96
2022-11-02T07:22:11.068Z,99912.90
2022-11-02T07:23:11.060Z,99923.67
2022-11-02T07:24:11.056Z,99919.64
2022-11-02T07:25:11.063Z,99922.42
2022-11-02T07:26:11.061Z,99918.39
2022-11-02T07:27:11.057Z,99923.53
2022-11-02T07:28:11.061Z,99924.43
2022-11-02T07:29:11.065Z,99931.30
2022-11-02T07:30:11.059Z,99930.91
2022-11-02T07:31:11.063Z,99930.23
2022-11-02T07:32:11.061Z,99934.91
2022-11-02T07:33:11.059Z,99934.36
2022-11-02T07:34:16.535Z,99933.28
2022-11-02T07:35:13.084Z,99940.90
2022-11-02T07:36:11.058Z,99936.73
2022-11-02T07:37:11.063Z,99938.23
2022-11-02T07:38:11.061Z,99938.20
2022-11-02T07:39:11.059Z,99932.01
2022-11-02T07:40:11.060Z,99930.66
2022-11-02T07:41:11.062Z,99938.71
2022-11-02T07:42:11.062Z,99936.46
2022-11-02T07:43:11.061Z,99936.81
2022-11-02T07:44:11.069Z,99932.17
2022-11-02T07:45:11.058Z,99935.59
2022-11-02T07:46:11.063Z,99931.71
2022-11-02T07:47:11.068Z,99925.44
2022-11-02T07:48:11.059Z,99935.57
2022-11-02T07:49:11.061Z,99936.16
2022-11-02T07:50:11.067Z,99933.12
2022-11-02T07:51:11.060Z,99933.46
2022-11-02T07:52:11.064Z,99935.45
2022-11-02T07:53:11.062Z,99937.04
2022-11-02T07:54:11.061Z,99941.91
2022-11-02T07:55:11.063Z,99938.84
2022-11-02T07:56:11.070Z,99939.52
2022-11-02T07:57:11.063Z,99941.72
2022-11-02T07:58:12.064Z,99939.50
2022-11-02T07:59:12.071Z,99931.86
2022-11-02T08:00:11.067Z,99934.22
2022-11-02T08:01:11.119Z,99930.61
2022-11-02T08:02:12.071Z,99933.65
2022-11-02T08:03:11.439Z,99929.29
2022-11-02T08:04:11.191Z,99935.97
2022-11-02T08:05:11.067Z,99940.60
2022-11-02T08:06:11.062Z,99940.69
2022-11-02T08:07:11.063Z,99938.86
2022-11-02T08:08:15.086Z,99936.32
2022-11-02T08:09:11.064Z,99934.88
2022-11-02T08:10:11.063Z,99930.59
2022-11-02T08:11:11.103Z,99930.25
2022-11-02T08:12:11.065Z,99933.89
2022-11-02T08:13:11.063Z,99940.15
2022-11-02T08:14:11.063Z,99934.77
2022-11-02T08:15:11.064Z,99942.68
2022-11-02T08:16:11.061Z,99928.62
2022-11-02T08:17:11.062Z,99927.18
2022-11-02T08:18:18.067Z,99924.34
2022-11-02T08:19:11.069Z,99930.57
2022-11-02T08:20:11.060Z,99927.41
2022-11-02T08:21:11.072Z,99927.84
2022-11-02T08:22:11.062Z,99918.39
2022-11-02T08:23:11.058Z,99925.50
2022-11-02T08:24:11.063Z,99925.77
2022-11-02T08:25:11.171Z,99923.10
2022-11-02T08:26:11.056Z,99926.22
2022-11-02T08:27:11.065Z,99922.62
2022-11-02T08:28:13.062Z,99921.23
2022-11-02T08:29:11.062Z,99921.37
2022-11-02T08:30:11.061Z,99922.07
2022-11-02T08:31:15.063Z,99920.17
2022-11-02T08:32:11.061Z,99920.76
2022-11-02T08:33:12.061Z,99921.32
2022-11-02T08:34:11.061Z,99919.59
2022-11-02T08:35:11.063Z,99921.48
2022-11-02T08:36:11.062Z,99923.94
2022-11-02T08:37:11.066Z,99914.50
2022-11-02T08:38:11.060Z,99916.63
2022-11-02T08:39:16.050Z,99920.59
2022-11-02T08:40:13.428Z,99917.24
2022-11-02T08:41:11.063Z,99916.98
2022-11-02T08:42:11.098Z,99914.81
2022-11-02T08:43:13.064Z,99920.33
2022-11-02T08:44:11.063Z,99923.98
2022-11-02T08:45:11.081Z,99919.11
2022-11-02T08:46:15.643Z,99913.78
2022-11-02T08:47:13.155Z,99914.54
2022-11-02T08:48:11.060Z,99913.68
2022-11-02T08:49:11.064Z,99919.47
2022-11-02T08:50:11.073Z,99913.94
2022-11-02T08:51:12.062Z,99910.95
2022-11-02T08:52:11.065Z,99913.67
2022-11-02T08:53:11.069Z,99911.83
2022-11-02T08:54:11.064Z,99911.48
2022-11-02T08:55:11.058Z,99911.21
2022-11-02T08:56:11.064Z,99907.60
2022-11-02T08:57:11.065Z,99911.01
2022-11-02T08:58:11.060Z,99905.15
2022-11-02T08:59:11.070Z,99898.47
2022-11-02T09:00:11.068Z,99904.32
2022-11-02T09:01:11.115Z,99905.64
2022-11-02T09:02:11.251Z,99907.05
2022-11-02T09:03:13.064Z,99901.91
2022-11-02T09:04:11.062Z,99904.99
2022-11-02T09:05:11.064Z,99907.81
2022-11-02T09:06:11.064Z,99909.19
2022-11-02T09:07:11.064Z,99909.38
2022-11-02T09:08:12.113Z,99909.31
2022-11-02T09:09:11.065Z,99906.80
2022-11-02T09:10:11.061Z,99909.77
2022-11-02T09:11:11.066Z,99909.86
2022-11-02T09:12:11.071Z,99907.09
2022-11-02T09:13:12.063Z,99904.19
2022-11-02T09:14:11.191Z,99908.14
2022-11-02T09:15:11.077Z,99902.45
2022-11-02T09:16:11.065Z,99903.68
2022-11-02T09:17:11.062Z,99892.88
2022-11-02T09:18:11.063Z,99900.51
2022-11-02T09:19:11.068Z,99893.03
2022-11-02T09:20:11.063Z,99887.88
2022-11-02T09:21:11.072Z,99889.18
2022-11-02T09:22:11.067Z,99888.57
2022-11-02T09:23:11.057Z,99882.38
2022-11-02T09:24:11.061Z,99885.48
2022-11-02T09:25:11.067Z,99884.48
2022-11-02T09:26:11.062Z,99886.34
2022-11-02T09:27:11.057Z,99872.92
2022-11-02T09:28:11.250Z,99871.94
2022-11-02T09:29:11.094Z,99871.07
2022-11-02T09:30:11.063Z,99863.39
2022-11-02T09:31:11.869Z,99870.55
2022-11-02T09:32:11.061Z,99862.89
2022-11-02T09:33:11.061Z,99864.16
2022-11-02T09:34:11.060Z,99860.55
2022-11-02T09:35:13.061Z,99859.88
2022-11-02T09:36:11.060Z,99858.65
2022-11-02T09:37:11.062Z,99857.10
2022-11-02T09:38:11.102Z,99850.95
2022-11-02T09:39:11.060Z,99848.22
2022-11-02T09:40:11.065Z,99841.29
2022-11-02T09:41:17.069Z,99849.29
2022-11-02T09:42:19.061Z,99855.51
2022-11-02T09:43:19.060Z,99842.42
2022-11-02T09:44:19.058Z,99848.63
2022-11-02T09:45:14.062Z,99848.98
2022-11-02T09:46:15.069Z,99853.87
2022-11-02T09:48:10.799Z,99850.11
2022-11-02T09:48:26.806Z,99847.18
2022-11-02T09:49:20.075Z,99848.51
2022-11-02T09:50:19.131Z,99845.81
2022-11-02T09:51:16.063Z,99835.60
2022-11-02T09:52:14.066Z,99842.11
2022-11-02T09:53:14.064Z,99844.81
2022-11-02T09:54:19.072Z,99836.26
2022-11-02T09:55:20.066Z,99835.77
2022-11-02T09:56:11.062Z,99824.34
2022-11-02T09:57:16.063Z,99825.59
2022-11-02T09:58:16.063Z,99825.30
2022-11-02T09:59:15.071Z,99822.29
2022-11-02T10:00:14.064Z,99827.71
2022-11-02T10:01:19.140Z,99825.66
2022-11-02T10:02:19.085Z,99817.76
2022-11-02T10:03:19.071Z,99810.00
2022-11-02T10:04:19.064Z,99817.60
2022-11-02T10:05:19.064Z,99806.52
2022-11-02T10:06:17.063Z,99797.51
2022-11-02T10:07:19.067Z,99796.39
2022-11-02T10:08:21.064Z,99793.96
2022-11-02T10:09:20.072Z,99794.98
2022-11-02T10:10:19.067Z,99791.78
2022-11-02T10:11:23.152Z,99783.49
2022-11-02T10:12:16.063Z,99789.64
2022-11-02T10:13:21.064Z,99786.88
2022-11-02T10:14:19.066Z,99777.30
2022-11-02T10:15:18.100Z,99776.04
2022-11-02T10:16:19.068Z,99780.56
2022-11-02T10:17:19.065Z,99774.54
2022-11-02T10:18:18.065Z,99774.05
2022-11-02T10:19:15.069Z,99760.80
2022-11-02T10:20:21.118Z,99773.69
2022-11-02T10:21:13.057Z,99761.15
2022-11-02T10:22:14.061Z,99765.95
2022-11-02T10:23:17.062Z,99761.98
2022-11-02T10:24:19.061Z,99761.07
2022-11-02T10:25:15.065Z,99757.52
2022-11-02T10:26:17.056Z,99755.41
2022-11-02T10:27:16.078Z,99752.07
2022-11-02T10:28:20.183Z,99749.64
2022-11-02T10:29:19.059Z,99750.48
2022-11-02T10:30:18.058Z,99753.22
2022-11-02T10:31:21.063Z,99764.03
2022-11-02T10:32:14.060Z,99748.98
2022-11-02T10:33:15.099Z,99743.12
2022-11-02T10:34:19.060Z,99740.28
2022-11-02T10:35:36.682Z,99739.54
2022-11-02T10:36:20.417Z,99733.90
2022-11-02T10:37:19.060Z,99726.71
2022-11-02T10:38:19.068Z,99729.99
2022-11-02T10:39:19.062Z,99723.87
2022-11-02T10:40:19.152Z,99718.61
2022-11-02T10:41:19.058Z,99710.35
2022-11-02T10:42:19.062Z,99707.25
2022-11-02T10:43:21.070Z,99716.12
2022-11-02T10:44:19.062Z,99709.64
2022-11-02T10:45:19.060Z,99709.86
2022-11-02T10:46:19.065Z,99713.52
2022-11-02T10:47:18.062Z,99702.73
2022-11-02T10:48:19.068Z,99690.64
2022-11-02T10:49:21.086Z,99702.53
2022-11-02T10:50:21.059Z,99692.50
2022-11-02T10:51:15.060Z,99701.29
2022-11-02T10:52:15.063Z,99688.53
2022-11-02T10:53:39.485Z,99691.15
2022-11-02T10:54:19.512Z,99680.79
2022-11-02T10:55:21.071Z,99683.08
2022-11-02T10:56:18.060Z,99680.58
2022-11-02T10:57:14.066Z,99670.38
2022-11-02T10:58:15.072Z,99665.52
2022-11-02T10:59:19.066Z,99673.64
2022-11-02T11:00:19.093Z,99662.78
2022-11-02T11:01:11.203Z,99670.35
2022-11-02T11:02:15.079Z,99669.24
2022-11-02T11:03:12.072Z,99659.43
2022-11-02T11:04:19.063Z,99648.10
2022-11-02T11:05:15.063Z,99666.92
2022-11-02T11:06:12.063Z,99649.87
2022-11-02T11:07:17.068Z,99650.86
2022-11-02T11:08:19.063Z,99653.91
2022-11-02T11:09:18.089Z,99645.76
2022-11-02T11:10:15.066Z,99642.99
2022-11-02T11:11:19.073Z,99634.03
2022-11-02T11:12:19.066Z,99630.52
2022-11-02T11:15:48.013Z,99619.53
2022-11-02T11:16:16.832Z,99616.72
2022-11-02T11:20:21.102Z,99614.71
2022-11-02T11:21:11.055Z,99607.19
2022-11-02T11:22:19.063Z,99611.12
2022-11-02T11:23:21.060Z,99589.86
2022-11-02T11:24:19.152Z,99598.47
2022-11-02T11:25:27.176Z,99604.90
2022-11-02T11:26:21.121Z,99588.80
2022-11-02T11:27:19.102Z,99597.96
2022-11-02T11:28:19.072Z,99595.56
2022-11-02T11:29:19.060Z,99589.16
2022-11-02T11:30:33.510Z,99591.34
2022-11-02T11:31:16.071Z,99594.09
2022-11-02T11:32:20.060Z,99585.87
2022-11-02T11:33:15.063Z,99586.26
2022-11-02T11:34:19.076Z,99561.22
2022-11-02T11:35:17.058Z,99582.70
2022-11-02T11:36:11.062Z,99572.51
2022-11-02T11:37:12.063Z,99576.36
2022-11-02T11:38:16.063Z,99574.45
2022-11-02T11:39:21.059Z,99574.84
2022-11-02T11:40:18.077Z,99568.05
2022-11-02T11:41:13.062Z,99572.13
2022-11-02T11:42:19.061Z,99572.31
2022-11-02T11:43:15.064Z,99567.98
2022-11-02T11:44:14.064Z,99570.52
2022-11-02T11:45:19.067Z,99567.97
2022-11-02T11:46:11.069Z,99574.44
2022-11-02T11:47:11.059Z,99559.81
2022-11-02T11:48:19.066Z,99564.52
2022-11-02T11:49:19.060Z,99561.96